Sao Miguel Arcanjo, Brazil
Current Conditions -  °F | °C
As of 9:00 PM on Monday 22 Dec 2014 (Local Time) from SBKP Reporting Station
Thunderstorm Thunderstorm  
Wind Chill: 70°   Ceiling: 200
Heat Index: 70°   Visibility: 2.5mi
Dew Point: 68°   Wind: 12mph
Humidity: 94%   Direction: 260°W
Pressure: 30"   Gusts: NA
Location:  23.81°S, 47.73°W
Report Text: SBKP 222300Z 26010KT 220V280 4000 TSRA BR BKN002 BKN030 FEW040CB OVC070 21/20 Q1016
Loading
Personal Weather Stations






























Interactive Weather Map New forecast layout! Learn more

10-Day Weather Forecast

Advertisements
Track Severe Weather on mobile